Aplicació Alertes

Dades de l'estació automàtica la Panadella

?
?
Resum diari 23:00 TU
Dades diàries de l'estació meteorològica
Temperatura mitjana 5.5 °C
Temperatura màxima 9.1 °C 14:33 TU
Temperatura mínima 1.6 °C 7:03 TU
Humitat relativa mitjana 83%
Precipitació acumulada 0.0 mm
Ratxa màxima del vent (10 m) 29.2 km/h - 284º 9:15 TU
Pressió atmosfèrica mitjana 1023.4 hPa
Irradiació solar global 10.7 MJ/m2

El tram horari està expressat en Temps Universal (TU). Cal sumar una hora en horari d'hivern i dues en horari d'estiu per passar a l'hora oficial.

la Panadella

Metadades estació meteorol´gica
Municipi Montmaneu
Comarca Anoia
Altitud 785 m
Data alta 18.12.2008
Estat actual Operativa
Dades de període
Període
TU
TM
°C
TX
°C
TN
°C
HRM
%
PPT
mm
VVM (10 m)
km/h
DVM (10 m)
graus
VVX (10 m)
km/h
PM
hPa
RS
W/m2
00:00 - 00:30 6.2 6.3 6.0 76 0.0 10.4 281 16.9 1022.9 0
00:30 - 01:00 6.3 6.5 6.2 76 0.0 11.5 283 20.5 1022.5 0
01:00 - 01:30 5.9 6.2 5.5 78 0.0 13.7 288 20.5 1022.7 0
01:30 - 02:00 5.1 5.4 4.8 82 0.0 13.7 284 20.5 1023.1 0
02:00 - 02:30 4.5 4.8 4.2 86 0.0 13.7 284 20.2 1023.3 0
02:30 - 03:00 3.9 4.1 3.8 90 0.0 12.6 282 18.7 1023.2 0
03:00 - 03:30 3.8 3.9 3.7 93 0.0 13.3 287 18.4 1023.1 0
03:30 - 04:00 3.5 3.6 3.3 94 0.0 11.9 278 16.9 1023.0 0
04:00 - 04:30 3.3 3.4 3.2 95 0.0 12.2 283 19.1 1023.0 0
04:30 - 05:00 3.1 3.3 3.0 96 0.0 18.0 301 23.8 1023.2 0
05:00 - 05:30 2.8 2.9 2.5 98 0.0 16.9 295 23.4 1023.2 0
05:30 - 06:00 2.4 2.5 2.2 99 0.0 16.2 298 22.0 1023.5 0
06:00 - 06:30 2.2 2.2 2.1 100 0.0 15.8 293 21.6 1023.7 0
06:30 - 07:00 2.0 2.2 1.7 100 0.0 12.6 286 18.0 1024.1 5
07:00 - 07:30 1.8 1.9 1.6 100 0.0 13.3 275 20.2 1024.4 38
07:30 - 08:00 1.9 2.0 1.9 100 0.0 14.0 275 20.9 1024.6 65
08:00 - 08:30 2.0 2.3 1.8 100 0.0 14.4 281 22.0 1024.7 123
08:30 - 09:00 2.8 3.4 2.3 100 0.0 16.2 287 23.8 1024.6 239
09:00 - 09:30 3.9 4.3 3.4 100 0.0 19.8 294 29.2 1024.3 354
09:30 - 10:00 4.6 5.1 4.1 96 0.0 18.4 291 26.3 1024.3 418
10:00 - 10:30 5.5 6.0 5.1 90 0.0 16.9 289 25.9 1024.1 459
10:30 - 11:00 6.2 6.6 5.9 86 0.0 15.8 291 24.1 1023.8 504
11:00 - 11:30 7.0 7.4 6.6 81 0.0 14.4 285 22.3 1023.3 521
11:30 - 12:00 7.7 8.0 7.4 77 0.0 15.8 287 23.8 1022.9 526
12:00 - 12:30 8.0 8.2 7.9 75 0.0 16.2 288 24.1 1022.5 516
12:30 - 13:00 8.3 8.5 8.0 75 0.0 16.6 293 23.4 1022.2 493
13:00 - 13:30 8.6 9.0 8.3 72 0.0 15.1 288 24.5 1021.9 462
13:30 - 14:00 8.8 9.0 8.5 71 0.0 14.8 295 21.2 1021.7 405
14:00 - 14:30 8.8 8.9 8.7 69 0.0 14.4 300 20.9 1021.7 341
14:30 - 15:00 8.9 9.1 8.8 67 0.0 12.6 286 19.4 1021.7 266
15:00 - 15:30 8.8 8.9 8.6 67 0.0 12.2 284 19.4 1021.7 185
15:30 - 16:00 8.2 8.6 7.6 69 0.0 11.9 291 16.9 1022.1 101
16:00 - 16:30 7.1 7.6 6.6 74 0.0 10.4 288 14.8 1022.4 16
16:30 - 17:00 6.2 6.6 5.8 79 0.0 10.8 280 14.8 1022.7 0
17:00 - 17:30 5.8 5.8 5.7 81 0.0 11.5 291 15.5 1023.3 0
17:30 - 18:00 5.5 5.7 5.3 83 0.0 11.5 291 16.2 1023.6 0
18:00 - 18:30 5.4 5.8 5.2 83 0.0 10.8 270 14.8 1023.9 0
18:30 - 19:00 5.7 5.8 5.6 80 0.0 11.9 254 14.8 1023.9 0
19:00 - 19:30 5.8 5.8 5.7 77 0.0 10.1 256 13.7 1024.1 0
19:30 - 20:00 6.0 6.1 5.8 75 0.0 10.8 252 15.1 1024.2 0
20:00 - 20:30 6.2 6.4 6.0 72 0.0 9.7 256 14.0 1024.3 0
20:30 - 21:00 6.2 6.4 6.1 70 0.0 8.6 259 11.9 1024.5 0
21:00 - 21:30 6.3 6.4 6.2 70 0.0 9.0 258 13.0 1024.6 0
21:30 - 22:00 6.3 6.4 6.2 72 0.0 8.6 254 12.2 1024.6 0
22:00 - 22:30 6.3 6.5 6.2 73 0.0 9.4 257 13.0 1024.6 0
22:30 - 23:00 6.3 6.4 6.2 74 0.0 9.0 265 11.9 1024.7 0
23:00 - 23:30 6.3 6.4 6.2 76 0.0 8.3 271 11.2 1024.7 0

Les dades en taronja només han passat un control de qualitat automàtic. Resta pendent la seva validació definitiva.